sensor_id;sensor_type;location;lat;lon;timestamp;P1;durP1;ratioP1;P2;durP2;ratioP2
74471;SDS011;62920;53.572;10.050;2023-03-01T00:01:05;15.02;;;5.93;;
74471;SDS011;62920;53.572;10.050;2023-03-01T00:03:32;12.60;;;5.78;;
74471;SDS011;62920;53.572;10.050;2023-03-01T00:05:58;13.18;;;5.40;;
74471;SDS011;62920;53.572;10.050;2023-03-01T00:08:24;15.25;;;5.97;;
74471;SDS011;62920;53.572;10.050;2023-03-01T00:10:59;12.00;;;5.70;;
74471;SDS011;62920;53.572;10.050;2023-03-01T00:13:25;12.57;;;5.82;;
74471;SDS011;62920;53.572;10.050;2023-03-01T00:15:51;16.52;;;5.93;;
74471;SDS011;62920;53.572;10.050;2023-03-01T00:18:16;14.30;;;6.68;;
74471;SDS011;62920;53.572;10.050;2023-03-01T00:20:41;11.93;;;5.57;;
74471;SDS011;62920;53.572;10.050;2023-03-01T00:23:14;13.00;;;6.28;;
74471;SDS011;62920;53.572;10.050;2023-03-01T00:25:43;17.17;;;6.13;;
74471;SDS011;62920;53.572;10.050;2023-03-01T00:28:08;15.27;;;6.63;;
74471;SDS011;62920;53.572;10.050;2023-03-01T00:30:34;22.85;;;6.07;;
74471;SDS011;62920;53.572;10.050;2023-03-01T00:32:59;15.00;;;5.90;;
74471;SDS011;62920;53.572;10.050;2023-03-01T00:35:24;15.70;;;6.60;;
74471;SDS011;62920;53.572;10.050;2023-03-01T00:37:50;16.52;;;6.72;;
74471;SDS011;62920;53.572;10.050;2023-03-01T00:40:22;15.20;;;5.60;;
74471;SDS011;62920;53.572;10.050;2023-03-01T00:42:51;15.43;;;6.40;;
74471;SDS011;62920;53.572;10.050;2023-03-01T00:45:17;14.18;;;5.78;;
74471;SDS011;62920;53.572;10.050;2023-03-01T00:47:42;17.05;;;5.80;;
74471;SDS011;62920;53.572;10.050;2023-03-01T00:50:08;14.15;;;5.82;;
74471;SDS011;62920;53.572;10.050;2023-03-01T00:52:34;12.80;;;6.13;;
74471;SDS011;62920;53.572;10.050;2023-03-01T00:54:59;15.80;;;5.90;;
74471;SDS011;62920;53.572;10.050;2023-03-01T00:57:25;17.48;;;6.43;;
74471;SDS011;62920;53.572;10.050;2023-03-01T00:59:50;12.82;;;5.70;;
74471;SDS011;62920;53.572;10.050;2023-03-01T01:02:17;15.40;;;6.78;;
74471;SDS011;62920;53.572;10.050;2023-03-01T01:04:43;10.50;;;5.13;;
74471;SDS011;62920;53.572;10.050;2023-03-01T01:07:09;13.50;;;5.50;;
74471;SDS011;62920;53.572;10.050;2023-03-01T01:09:34;10.57;;;5.88;;
74471;SDS011;62920;53.572;10.050;2023-03-01T01:12:00;14.55;;;5.95;;
74471;SDS011;62920;53.572;10.050;2023-03-01T01:14:26;12.05;;;6.10;;
74471;SDS011;62920;53.572;10.050;2023-03-01T01:16:51;15.63;;;6.40;;
74471;SDS011;62920;53.572;10.050;2023-03-01T01:19:16;11.70;;;5.80;;
74471;SDS011;62920;53.572;10.050;2023-03-01T01:21:42;17.52;;;5.72;;
74471;SDS011;62920;53.572;10.050;2023-03-01T01:24:09;16.90;;;6.38;;
74471;SDS011;62920;53.572;10.050;2023-03-01T01:26:34;11.75;;;5.57;;
74471;SDS011;62920;53.572;10.050;2023-03-01T01:29:00;14.18;;;6.20;;
74471;SDS011;62920;53.572;10.050;2023-03-01T01:31:27;16.73;;;5.57;;
74471;SDS011;62920;53.572;10.050;2023-03-01T01:33:53;15.57;;;6.22;;
74471;SDS011;62920;53.572;10.050;2023-03-01T01:36:20;15.50;;;6.22;;
74471;SDS011;62920;53.572;10.050;2023-03-01T01:38:45;12.68;;;5.57;;
74471;SDS011;62920;53.572;10.050;2023-03-01T01:41:11;14.50;;;5.85;;
74471;SDS011;62920;53.572;10.050;2023-03-01T01:43:42;14.43;;;5.93;;
74471;SDS011;62920;53.572;10.050;2023-03-01T01:46:25;17.02;;;6.57;;
74471;SDS011;62920;53.572;10.050;2023-03-01T01:49:03;15.18;;;6.28;;
74471;SDS011;62920;53.572;10.050;2023-03-01T01:51:32;12.00;;;6.30;;
74471;SDS011;62920;53.572;10.050;2023-03-01T01:54:03;13.27;;;6.38;;
74471;SDS011;62920;53.572;10.050;2023-03-01T01:56:32;15.70;;;6.85;;
74471;SDS011;62920;53.572;10.050;2023-03-01T01:58:57;12.63;;;5.82;;
74471;SDS011;62920;53.572;10.050;2023-03-01T02:01:23;21.05;;;5.68;;
74471;SDS011;62920;53.572;10.050;2023-03-01T02:03:48;20.38;;;6.57;;
74471;SDS011;62920;53.572;10.050;2023-03-01T02:06:33;16.35;;;6.25;;
74471;SDS011;62920;53.572;10.050;2023-03-01T02:09:04;12.60;;;5.80;;
74471;SDS011;62920;53.572;10.050;2023-03-01T02:11:32;15.55;;;7.22;;
74471;SDS011;62920;53.572;10.050;2023-03-01T02:13:58;14.80;;;5.55;;
74471;SDS011;62920;53.572;10.050;2023-03-01T02:16:23;18.10;;;6.63;;
74471;SDS011;62920;53.572;10.050;2023-03-01T02:18:48;15.18;;;6.78;;
74471;SDS011;62920;53.572;10.050;2023-03-01T02:21:17;13.73;;;6.55;;
74471;SDS011;62920;53.572;10.050;2023-03-01T02:23:46;12.73;;;6.03;;
74471;SDS011;62920;53.572;10.050;2023-03-01T02:26:47;11.95;;;6.38;;
74471;SDS011;62920;53.572;10.050;2023-03-01T02:29:03;14.63;;;6.07;;
74471;SDS011;62920;53.572;10.050;2023-03-01T02:31:30;14.77;;;6.13;;
74471;SDS011;62920;53.572;10.050;2023-03-01T02:34:15;13.60;;;5.70;;
74471;SDS011;62920;53.572;10.050;2023-03-01T02:36:46;17.85;;;6.55;;
74471;SDS011;62920;53.572;10.050;2023-03-01T02:39:14;13.02;;;6.50;;
74471;SDS011;62920;53.572;10.050;2023-03-01T02:41:43;14.23;;;6.43;;
74471;SDS011;62920;53.572;10.050;2023-03-01T02:44:11;15.25;;;6.15;;
74471;SDS011;62920;53.572;10.050;2023-03-01T02:46:41;14.98;;;6.13;;
74471;SDS011;62920;53.572;10.050;2023-03-01T02:52:08;15.27;;;6.55;;
74471;SDS011;62920;53.572;10.050;2023-03-01T02:57:22;11.45;;;6.10;;
74471;SDS011;62920;53.572;10.050;2023-03-01T02:59:48;12.95;;;6.30;;
74471;SDS011;62920;53.572;10.050;2023-03-01T03:02:19;15.43;;;6.45;;
74471;SDS011;62920;53.572;10.050;2023-03-01T03:05:01;15.88;;;6.50;;
74471;SDS011;62920;53.572;10.050;2023-03-01T03:07:33;16.60;;;6.25;;
74471;SDS011;62920;53.572;10.050;2023-03-01T03:10:00;18.75;;;6.45;;
74471;SDS011;62920;53.572;10.050;2023-03-01T03:12:27;12.80;;;6.10;;
74471;SDS011;62920;53.572;10.050;2023-03-01T03:14:52;15.38;;;5.55;;
74471;SDS011;62920;53.572;10.050;2023-03-01T03:17:17;12.15;;;5.90;;
74471;SDS011;62920;53.572;10.050;2023-03-01T03:19:43;13.90;;;6.05;;
74471;SDS011;62920;53.572;10.050;2023-03-01T03:22:10;17.30;;;7.15;;
74471;SDS011;62920;53.572;10.050;2023-03-01T03:24:37;14.23;;;6.50;;
74471;SDS011;62920;53.572;10.050;2023-03-01T03:27:06;14.60;;;6.82;;
74471;SDS011;62920;53.572;10.050;2023-03-01T03:29:31;19.17;;;6.93;;
74471;SDS011;62920;53.572;10.050;2023-03-01T03:31:57;14.18;;;6.75;;
74471;SDS011;62920;53.572;10.050;2023-03-01T03:34:23;12.55;;;6.40;;
74471;SDS011;62920;53.572;10.050;2023-03-01T03:36:52;12.85;;;6.20;;
74471;SDS011;62920;53.572;10.050;2023-03-01T03:41:47;12.25;;;5.57;;
74471;SDS011;62920;53.572;10.050;2023-03-01T03:44:12;13.60;;;6.50;;
74471;SDS011;62920;53.572;10.050;2023-03-01T03:46:37;16.45;;;6.60;;
74471;SDS011;62920;53.572;10.050;2023-03-01T03:49:03;16.83;;;5.93;;
74471;SDS011;62920;53.572;10.050;2023-03-01T03:51:28;14.07;;;6.80;;
74471;SDS011;62920;53.572;10.050;2023-03-01T03:53:53;20.63;;;7.45;;
74471;SDS011;62920;53.572;10.050;2023-03-01T03:56:19;11.50;;;6.07;;
74471;SDS011;62920;53.572;10.050;2023-03-01T03:58:44;15.57;;;6.20;;
74471;SDS011;62920;53.572;10.050;2023-03-01T04:01:10;16.25;;;6.40;;
74471;SDS011;62920;53.572;10.050;2023-03-01T04:03:35;13.75;;;5.93;;
74471;SDS011;62920;53.572;10.050;2023-03-01T04:06:01;13.80;;;5.70;;
74471;SDS011;62920;53.572;10.050;2023-03-01T04:08:26;15.95;;;6.53;;
74471;SDS011;62920;53.572;10.050;2023-03-01T04:10:53;14.98;;;6.28;;
74471;SDS011;62920;53.572;10.050;2023-03-01T04:13:22;11.73;;;5.75;;
74471;SDS011;62920;53.572;10.050;2023-03-01T04:15:50;12.98;;;6.80;;
74471;SDS011;62920;53.572;10.050;2023-03-01T04:18:16;14.45;;;6.22;;
74471;SDS011;62920;53.572;10.050;2023-03-01T04:20:43;17.65;;;6.28;;
74471;SDS011;62920;53.572;10.050;2023-03-01T04:23:11;18.02;;;6.75;;
74471;SDS011;62920;53.572;10.050;2023-03-01T04:25:53;13.95;;;6.30;;
74471;SDS011;62920;53.572;10.050;2023-03-01T04:28:21;12.25;;;6.32;;
74471;SDS011;62920;53.572;10.050;2023-03-01T04:30:49;12.30;;;6.22;;
74471;SDS011;62920;53.572;10.050;2023-03-01T04:33:15;14.43;;;6.85;;
74471;SDS011;62920;53.572;10.050;2023-03-01T04:35:40;14.40;;;5.53;;
74471;SDS011;62920;53.572;10.050;2023-03-01T04:38:06;12.48;;;6.25;;
74471;SDS011;62920;53.572;10.050;2023-03-01T04:40:32;12.43;;;5.72;;
74471;SDS011;62920;53.572;10.050;2023-03-01T04:42:57;15.98;;;7.53;;
74471;SDS011;62920;53.572;10.050;2023-03-01T04:45:22;13.52;;;6.80;;
74471;SDS011;62920;53.572;10.050;2023-03-01T04:47:48;15.70;;;5.88;;
74471;SDS011;62920;53.572;10.050;2023-03-01T04:50:15;10.45;;;6.13;;
74471;SDS011;62920;53.572;10.050;2023-03-01T04:52:41;10.23;;;5.63;;
74471;SDS011;62920;53.572;10.050;2023-03-01T04:55:07;14.05;;;5.97;;
74471;SDS011;62920;53.572;10.050;2023-03-01T04:57:33;13.18;;;6.38;;
74471;SDS011;62920;53.572;10.050;2023-03-01T04:59:59;15.48;;;6.22;;
74471;SDS011;62920;53.572;10.050;2023-03-01T05:02:24;12.40;;;5.95;;
74471;SDS011;62920;53.572;10.050;2023-03-01T05:04:49;14.10;;;6.65;;
74471;SDS011;62920;53.572;10.050;2023-03-01T05:07:15;12.98;;;6.03;;
74471;SDS011;62920;53.572;10.050;2023-03-01T05:09:47;10.98;;;5.82;;
74471;SDS011;62920;53.572;10.050;2023-03-01T05:12:13;19.00;;;6.20;;
74471;SDS011;62920;53.572;10.050;2023-03-01T05:14:39;10.10;;;5.47;;
74471;SDS011;62920;53.572;10.050;2023-03-01T05:17:05;10.15;;;5.35;;
74471;SDS011;62920;53.572;10.050;2023-03-01T05:19:31;16.08;;;6.38;;
74471;SDS011;62920;53.572;10.050;2023-03-01T05:21:57;10.85;;;5.85;;
74471;SDS011;62920;53.572;10.050;2023-03-01T05:24:32;14.88;;;5.75;;
74471;SDS011;62920;53.572;10.050;2023-03-01T05:26:58;14.82;;;5.93;;
74471;SDS011;62920;53.572;10.050;2023-03-01T05:29:25;11.02;;;5.05;;
74471;SDS011;62920;53.572;10.050;2023-03-01T05:31:53;11.50;;;5.00;;
74471;SDS011;62920;53.572;10.050;2023-03-01T05:34:22;12.15;;;5.25;;
74471;SDS011;62920;53.572;10.050;2023-03-01T05:36:48;12.90;;;5.20;;
74471;SDS011;62920;53.572;10.050;2023-03-01T05:39:17;10.93;;;5.32;;
74471;SDS011;62920;53.572;10.050;2023-03-01T05:41:47;11.43;;;4.63;;
74471;SDS011;62920;53.572;10.050;2023-03-01T05:44:13;10.57;;;5.20;;
74471;SDS011;62920;53.572;10.050;2023-03-01T05:46:38;9.60;;;4.15;;
74471;SDS011;62920;53.572;10.050;2023-03-01T05:49:04;16.63;;;5.35;;
74471;SDS011;62920;53.572;10.050;2023-03-01T05:51:30;9.18;;;4.28;;
74471;SDS011;62920;53.572;10.050;2023-03-01T05:53:55;8.65;;;4.65;;
74471;SDS011;62920;53.572;10.050;2023-03-01T05:56:21;10.18;;;4.30;;
74471;SDS011;62920;53.572;10.050;2023-03-01T05:58:47;8.77;;;4.03;;
74471;SDS011;62920;53.572;10.050;2023-03-01T06:01:14;9.38;;;3.85;;
74471;SDS011;62920;53.572;10.050;2023-03-01T06:03:39;7.80;;;3.70;;
74471;SDS011;62920;53.572;10.050;2023-03-01T06:06:05;8.88;;;3.80;;
74471;SDS011;62920;53.572;10.050;2023-03-01T06:08:30;10.30;;;4.35;;
74471;SDS011;62920;53.572;10.050;2023-03-01T06:10:56;7.93;;;3.40;;
74471;SDS011;62920;53.572;10.050;2023-03-01T06:13:21;8.88;;;4.30;;
74471;SDS011;62920;53.572;10.050;2023-03-01T06:15:48;8.73;;;4.30;;
74471;SDS011;62920;53.572;10.050;2023-03-01T06:18:13;7.22;;;2.95;;
74471;SDS011;62920;53.572;10.050;2023-03-01T06:20:39;9.70;;;4.18;;
74471;SDS011;62920;53.572;10.050;2023-03-01T06:23:04;10.15;;;4.05;;
74471;SDS011;62920;53.572;10.050;2023-03-01T06:25:29;8.02;;;4.00;;
74471;SDS011;62920;53.572;10.050;2023-03-01T06:27:55;9.00;;;4.43;;
74471;SDS011;62920;53.572;10.050;2023-03-01T06:30:21;10.10;;;4.45;;
74471;SDS011;62920;53.572;10.050;2023-03-01T06:32:47;12.02;;;5.80;;
74471;SDS011;62920;53.572;10.050;2023-03-01T06:35:14;8.85;;;4.03;;
74471;SDS011;62920;53.572;10.050;2023-03-01T06:37:42;7.68;;;4.22;;
74471;SDS011;62920;53.572;10.050;2023-03-01T06:40:08;10.25;;;4.82;;
74471;SDS011;62920;53.572;10.050;2023-03-01T06:42:36;11.68;;;4.53;;
74471;SDS011;62920;53.572;10.050;2023-03-01T06:45:02;9.30;;;4.25;;
74471;SDS011;62920;53.572;10.050;2023-03-01T06:47:28;9.57;;;4.97;;
74471;SDS011;62920;53.572;10.050;2023-03-01T06:49:53;10.10;;;5.00;;
74471;SDS011;62920;53.572;10.050;2023-03-01T06:52:18;10.07;;;4.50;;
74471;SDS011;62920;53.572;10.050;2023-03-01T06:54:44;10.93;;;4.30;;
74471;SDS011;62920;53.572;10.050;2023-03-01T06:57:09;9.95;;;4.80;;
74471;SDS011;62920;53.572;10.050;2023-03-01T06:59:34;10.60;;;4.78;;
74471;SDS011;62920;53.572;10.050;2023-03-01T07:02:00;13.18;;;4.90;;
74471;SDS011;62920;53.572;10.050;2023-03-01T07:04:25;7.97;;;4.85;;
74471;SDS011;62920;53.572;10.050;2023-03-01T07:06:53;10.85;;;3.80;;
74471;SDS011;62920;53.572;10.050;2023-03-01T07:09:20;8.80;;;4.47;;
74471;SDS011;62920;53.572;10.050;2023-03-01T07:11:47;11.52;;;3.97;;
74471;SDS011;62920;53.572;10.050;2023-03-01T07:14:12;9.50;;;3.92;;
74471;SDS011;62920;53.572;10.050;2023-03-01T07:16:38;8.30;;;3.03;;
74471;SDS011;62920;53.572;10.050;2023-03-01T07:19:03;9.68;;;3.17;;
74471;SDS011;62920;53.572;10.050;2023-03-01T07:21:30;7.60;;;3.60;;
74471;SDS011;62920;53.572;10.050;2023-03-01T07:23:55;7.70;;;3.60;;
74471;SDS011;62920;53.572;10.050;2023-03-01T07:26:21;9.70;;;3.35;;
74471;SDS011;62920;53.572;10.050;2023-03-01T07:28:46;8.98;;;3.95;;
74471;SDS011;62920;53.572;10.050;2023-03-01T07:31:12;6.95;;;3.60;;
74471;SDS011;62920;53.572;10.050;2023-03-01T07:33:37;8.52;;;3.45;;
74471;SDS011;62920;53.572;10.050;2023-03-01T07:36:03;8.43;;;3.97;;
74471;SDS011;62920;53.572;10.050;2023-03-01T07:38:31;6.72;;;3.58;;
74471;SDS011;62920;53.572;10.050;2023-03-01T07:40:58;7.97;;;4.43;;
74471;SDS011;62920;53.572;10.050;2023-03-01T07:43:27;11.82;;;3.75;;
74471;SDS011;62920;53.572;10.050;2023-03-01T07:45:53;10.98;;;4.15;;
74471;SDS011;62920;53.572;10.050;2023-03-01T07:48:18;7.93;;;3.83;;
74471;SDS011;62920;53.572;10.050;2023-03-01T07:50:44;9.88;;;4.05;;
74471;SDS011;62920;53.572;10.050;2023-03-01T07:53:09;9.77;;;4.53;;
74471;SDS011;62920;53.572;10.050;2023-03-01T07:55:35;13.23;;;5.40;;
74471;SDS011;62920;53.572;10.050;2023-03-01T07:58:01;17.50;;;5.90;;
74471;SDS011;62920;53.572;10.050;2023-03-01T08:00:26;11.75;;;6.15;;
74471;SDS011;62920;53.572;10.050;2023-03-01T08:02:54;12.13;;;6.68;;
74471;SDS011;62920;53.572;10.050;2023-03-01T08:05:24;14.00;;;5.22;;
74471;SDS011;62920;53.572;10.050;2023-03-01T08:07:49;13.73;;;6.20;;
74471;SDS011;62920;53.572;10.050;2023-03-01T08:10:14;12.02;;;5.93;;
74471;SDS011;62920;53.572;10.050;2023-03-01T08:12:40;16.95;;;6.28;;
74471;SDS011;62920;53.572;10.050;2023-03-01T08:15:05;11.07;;;6.07;;
74471;SDS011;62920;53.572;10.050;2023-03-01T08:17:31;12.35;;;6.45;;
74471;SDS011;62920;53.572;10.050;2023-03-01T08:19:56;14.32;;;6.25;;
74471;SDS011;62920;53.572;10.050;2023-03-01T08:22:22;11.77;;;7.10;;
74471;SDS011;62920;53.572;10.050;2023-03-01T08:24:47;16.70;;;7.25;;
74471;SDS011;62920;53.572;10.050;2023-03-01T08:27:14;16.15;;;8.93;;
74471;SDS011;62920;53.572;10.050;2023-03-01T08:29:40;13.13;;;6.47;;
74471;SDS011;62920;53.572;10.050;2023-03-01T08:32:05;14.50;;;6.40;;
74471;SDS011;62920;53.572;10.050;2023-03-01T08:34:31;12.00;;;6.18;;
74471;SDS011;62920;53.572;10.050;2023-03-01T08:36:56;17.00;;;7.50;;
74471;SDS011;62920;53.572;10.050;2023-03-01T08:39:22;12.52;;;5.88;;
74471;SDS011;62920;53.572;10.050;2023-03-01T08:41:47;13.13;;;7.28;;
74471;SDS011;62920;53.572;10.050;2023-03-01T08:44:13;14.15;;;6.90;;
74471;SDS011;62920;53.572;10.050;2023-03-01T08:46:41;14.50;;;6.90;;
74471;SDS011;62920;53.572;10.050;2023-03-01T08:49:07;14.05;;;7.05;;
74471;SDS011;62920;53.572;10.050;2023-03-01T08:51:36;14.40;;;6.15;;
74471;SDS011;62920;53.572;10.050;2023-03-01T08:54:04;14.90;;;6.60;;
74471;SDS011;62920;53.572;10.050;2023-03-01T08:56:29;15.52;;;7.65;;
74471;SDS011;62920;53.572;10.050;2023-03-01T08:58:55;16.10;;;6.03;;
74471;SDS011;62920;53.572;10.050;2023-03-01T09:01:20;14.57;;;7.40;;
74471;SDS011;62920;53.572;10.050;2023-03-01T09:03:46;16.25;;;6.95;;
74471;SDS011;62920;53.572;10.050;2023-03-01T09:06:12;16.83;;;7.03;;
74471;SDS011;62920;53.572;10.050;2023-03-01T09:08:39;13.10;;;6.97;;
74471;SDS011;62920;53.572;10.050;2023-03-01T09:11:07;13.02;;;6.50;;
74471;SDS011;62920;53.572;10.050;2023-03-01T09:13:33;17.77;;;6.93;;
74471;SDS011;62920;53.572;10.050;2023-03-01T09:16:00;13.60;;;6.65;;
74471;SDS011;62920;53.572;10.050;2023-03-01T09:18:26;12.95;;;6.72;;
74471;SDS011;62920;53.572;10.050;2023-03-01T09:20:52;11.32;;;7.00;;
74471;SDS011;62920;53.572;10.050;2023-03-01T09:23:20;11.68;;;7.10;;
74471;SDS011;62920;53.572;10.050;2023-03-01T09:25:46;12.77;;;7.13;;
74471;SDS011;62920;53.572;10.050;2023-03-01T09:28:11;15.40;;;7.30;;
74471;SDS011;62920;53.572;10.050;2023-03-01T09:30:36;13.50;;;7.88;;
74471;SDS011;62920;53.572;10.050;2023-03-01T09:33:02;13.88;;;7.30;;
74471;SDS011;62920;53.572;10.050;2023-03-01T09:35:27;14.57;;;7.22;;
74471;SDS011;62920;53.572;10.050;2023-03-01T09:37:53;14.52;;;7.72;;
74471;SDS011;62920;53.572;10.050;2023-03-01T09:40:20;13.95;;;7.20;;
74471;SDS011;62920;53.572;10.050;2023-03-01T09:42:53;12.90;;;6.65;;
74471;SDS011;62920;53.572;10.050;2023-03-01T09:45:43;15.27;;;8.55;;
74471;SDS011;62920;53.572;10.050;2023-03-01T09:48:10;14.30;;;8.55;;
74471;SDS011;62920;53.572;10.050;2023-03-01T09:50:40;17.58;;;8.27;;
74471;SDS011;62920;53.572;10.050;2023-03-01T09:53:16;13.05;;;8.30;;
74471;SDS011;62920;53.572;10.050;2023-03-01T09:55:54;12.68;;;7.57;;
74471;SDS011;62920;53.572;10.050;2023-03-01T10:01:23;13.02;;;7.15;;
74471;SDS011;62920;53.572;10.050;2023-03-01T10:06:25;13.93;;;7.75;;
74471;SDS011;62920;53.572;10.050;2023-03-01T10:11:35;15.38;;;7.78;;
74471;SDS011;62920;53.572;10.050;2023-03-01T10:16:40;14.68;;;6.65;;
74471;SDS011;62920;53.572;10.050;2023-03-01T10:19:13;15.07;;;8.00;;
74471;SDS011;62920;53.572;10.050;2023-03-01T10:21:43;14.50;;;7.35;;
74471;SDS011;62920;53.572;10.050;2023-03-01T10:24:15;16.38;;;7.72;;
74471;SDS011;62920;53.572;10.050;2023-03-01T10:26:50;13.30;;;6.72;;
74471;SDS011;62920;53.572;10.050;2023-03-01T10:29:20;13.18;;;7.18;;
74471;SDS011;62920;53.572;10.050;2023-03-01T10:31:50;11.82;;;5.75;;
74471;SDS011;62920;53.572;10.050;2023-03-01T10:34:30;14.30;;;7.45;;
74471;SDS011;62920;53.572;10.050;2023-03-01T10:37:18;12.73;;;6.07;;
74471;SDS011;62920;53.572;10.050;2023-03-01T10:40:04;16.17;;;6.55;;
74471;SDS011;62920;53.572;10.050;2023-03-01T10:42:34;12.75;;;6.45;;
74471;SDS011;62920;53.572;10.050;2023-03-01T10:48:20;11.77;;;5.93;;
74471;SDS011;62920;53.572;10.050;2023-03-01T10:53:28;11.63;;;5.88;;
74471;SDS011;62920;53.572;10.050;2023-03-01T10:56:05;12.85;;;6.35;;
74471;SDS011;62920;53.572;10.050;2023-03-01T10:58:32;12.82;;;6.45;;
74471;SDS011;62920;53.572;10.050;2023-03-01T11:00:59;14.65;;;6.15;;
74471;SDS011;62920;53.572;10.050;2023-03-01T11:11:06;12.77;;;5.80;;
74471;SDS011;62920;53.572;10.050;2023-03-01T11:13:38;12.77;;;6.13;;
74471;SDS011;62920;53.572;10.050;2023-03-01T11:16:32;12.05;;;5.80;;
74471;SDS011;62920;53.572;10.050;2023-03-01T11:21:34;13.30;;;5.38;;
74471;SDS011;62920;53.572;10.050;2023-03-01T11:24:08;12.23;;;6.25;;
74471;SDS011;62920;53.572;10.050;2023-03-01T11:26:37;10.73;;;5.20;;
74471;SDS011;62920;53.572;10.050;2023-03-01T11:29:06;8.38;;;4.95;;
74471;SDS011;62920;53.572;10.050;2023-03-01T11:31:38;10.68;;;5.70;;
74471;SDS011;62920;53.572;10.050;2023-03-01T11:34:06;9.25;;;4.85;;
74471;SDS011;62920;53.572;10.050;2023-03-01T11:36:51;10.25;;;5.43;;
74471;SDS011;62920;53.572;10.050;2023-03-01T11:42:21;11.20;;;5.43;;
74471;SDS011;62920;53.572;10.050;2023-03-01T11:44:56;9.85;;;4.53;;
74471;SDS011;62920;53.572;10.050;2023-03-01T11:50:29;7.90;;;4.32;;
74471;SDS011;62920;53.572;10.050;2023-03-01T11:56:08;7.65;;;4.40;;
74471;SDS011;62920;53.572;10.050;2023-03-01T12:10:32;6.88;;;3.85;;
74471;SDS011;62920;53.572;10.050;2023-03-01T12:21:17;8.40;;;3.63;;
74471;SDS011;62920;53.572;10.050;2023-03-01T12:29:21;6.97;;;3.67;;
74471;SDS011;62920;53.572;10.050;2023-03-01T12:37:54;8.93;;;3.58;;
74471;SDS011;62920;53.572;10.050;2023-03-01T12:40:46;6.43;;;3.63;;
74471;SDS011;62920;53.572;10.050;2023-03-01T12:46:33;7.90;;;3.78;;
74471;SDS011;62920;53.572;10.050;2023-03-01T12:49:16;9.95;;;4.13;;
74471;SDS011;62920;53.572;10.050;2023-03-01T12:51:46;8.35;;;4.00;;
74471;SDS011;62920;53.572;10.050;2023-03-01T12:54:38;5.93;;;3.40;;
74471;SDS011;62920;53.572;10.050;2023-03-01T12:57:25;6.65;;;3.72;;
74471;SDS011;62920;53.572;10.050;2023-03-01T13:02:45;7.95;;;4.07;;
74471;SDS011;62920;53.572;10.050;2023-03-01T13:05:19;7.85;;;4.00;;
74471;SDS011;62920;53.572;10.050;2023-03-01T13:11:06;9.95;;;4.15;;
74471;SDS011;62920;53.572;10.050;2023-03-01T13:13:25;7.20;;;3.88;;
74471;SDS011;62920;53.572;10.050;2023-03-01T13:15:52;7.93;;;3.75;;
74471;SDS011;62920;53.572;10.050;2023-03-01T13:31:00;8.13;;;4.47;;
74471;SDS011;62920;53.572;10.050;2023-03-01T13:35:52;7.43;;;3.72;;
74471;SDS011;62920;53.572;10.050;2023-03-01T13:38:37;7.15;;;4.03;;
74471;SDS011;62920;53.572;10.050;2023-03-01T13:41:03;9.15;;;4.55;;
74471;SDS011;62920;53.572;10.050;2023-03-01T13:43:30;8.38;;;4.15;;
74471;SDS011;62920;53.572;10.050;2023-03-01T13:46:21;9.90;;;4.78;;
74471;SDS011;62920;53.572;10.050;2023-03-01T13:48:49;8.10;;;4.30;;
74471;SDS011;62920;53.572;10.050;2023-03-01T13:51:20;7.93;;;4.05;;
74471;SDS011;62920;53.572;10.050;2023-03-01T13:53:48;6.82;;;3.40;;
74471;SDS011;62920;53.572;10.050;2023-03-01T13:56:15;7.35;;;3.50;;
74471;SDS011;62920;53.572;10.050;2023-03-01T14:04:21;6.40;;;3.47;;
74471;SDS011;62920;53.572;10.050;2023-03-01T14:06:48;8.85;;;3.53;;
74471;SDS011;62920;53.572;10.050;2023-03-01T14:09:16;6.78;;;2.90;;
74471;SDS011;62920;53.572;10.050;2023-03-01T14:17:18;7.57;;;4.03;;
74471;SDS011;62920;53.572;10.050;2023-03-01T14:19:57;6.05;;;3.47;;
74471;SDS011;62920;53.572;10.050;2023-03-01T14:24:56;6.00;;;3.42;;
74471;SDS011;62920;53.572;10.050;2023-03-01T14:27:25;6.93;;;3.47;;
74471;SDS011;62920;53.572;10.050;2023-03-01T14:30:10;7.07;;;3.50;;
74471;SDS011;62920;53.572;10.050;2023-03-01T14:32:38;7.10;;;3.30;;
74471;SDS011;62920;53.572;10.050;2023-03-01T14:35:18;11.75;;;3.38;;
74471;SDS011;62920;53.572;10.050;2023-03-01T14:37:48;7.97;;;3.25;;
74471;SDS011;62920;53.572;10.050;2023-03-01T14:43:00;7.55;;;4.07;;
74471;SDS011;62920;53.572;10.050;2023-03-01T14:45:29;8.27;;;3.63;;
74471;SDS011;62920;53.572;10.050;2023-03-01T14:47:58;8.70;;;3.85;;
74471;SDS011;62920;53.572;10.050;2023-03-01T14:50:26;10.50;;;4.68;;
74471;SDS011;62920;53.572;10.050;2023-03-01T14:53:00;6.70;;;3.67;;
74471;SDS011;62920;53.572;10.050;2023-03-01T14:55:33;6.97;;;3.33;;
74471;SDS011;62920;53.572;10.050;2023-03-01T14:57:59;6.65;;;3.20;;
74471;SDS011;62920;53.572;10.050;2023-03-01T15:00:28;7.22;;;3.22;;
74471;SDS011;62920;53.572;10.050;2023-03-01T15:02:56;7.38;;;3.70;;
74471;SDS011;62920;53.572;10.050;2023-03-01T15:05:31;7.25;;;3.40;;
74471;SDS011;62920;53.572;10.050;2023-03-01T15:07:58;7.72;;;3.85;;
74471;SDS011;62920;53.572;10.050;2023-03-01T15:10:26;8.85;;;3.67;;
74471;SDS011;62920;53.572;10.050;2023-03-01T15:12:53;8.65;;;3.75;;
74471;SDS011;62920;53.572;10.050;2023-03-01T15:18:37;6.03;;;3.67;;
74471;SDS011;62920;53.572;10.050;2023-03-01T15:20:49;7.70;;;4.05;;
74471;SDS011;62920;53.572;10.050;2023-03-01T15:25:51;6.60;;;3.35;;
74471;SDS011;62920;53.572;10.050;2023-03-01T15:28:25;6.75;;;3.45;;
74471;SDS011;62920;53.572;10.050;2023-03-01T15:31:36;7.07;;;3.40;;
74471;SDS011;62920;53.572;10.050;2023-03-01T15:33:46;7.72;;;3.20;;
74471;SDS011;62920;53.572;10.050;2023-03-01T15:36:29;6.35;;;3.28;;
74471;SDS011;62920;53.572;10.050;2023-03-01T15:38:58;5.72;;;3.33;;
74471;SDS011;62920;53.572;10.050;2023-03-01T15:43:52;5.28;;;2.90;;
74471;SDS011;62920;53.572;10.050;2023-03-01T15:46:22;6.07;;;3.05;;
74471;SDS011;62920;53.572;10.050;2023-03-01T15:48:51;5.65;;;3.00;;
74471;SDS011;62920;53.572;10.050;2023-03-01T15:51:22;7.00;;;3.17;;
74471;SDS011;62920;53.572;10.050;2023-03-01T15:53:54;5.90;;;2.88;;
74471;SDS011;62920;53.572;10.050;2023-03-01T15:56:20;6.05;;;3.15;;
74471;SDS011;62920;53.572;10.050;2023-03-01T15:58:46;6.65;;;2.95;;
74471;SDS011;62920;53.572;10.050;2023-03-01T16:01:15;8.38;;;2.67;;
74471;SDS011;62920;53.572;10.050;2023-03-01T16:03:42;6.32;;;3.38;;
74471;SDS011;62920;53.572;10.050;2023-03-01T16:06:09;5.88;;;3.17;;
74471;SDS011;62920;53.572;10.050;2023-03-01T16:08:36;6.93;;;3.45;;
74471;SDS011;62920;53.572;10.050;2023-03-01T16:13:30;7.63;;;3.83;;
74471;SDS011;62920;53.572;10.050;2023-03-01T16:15:56;7.13;;;3.28;;
74471;SDS011;62920;53.572;10.050;2023-03-01T16:18:22;7.25;;;3.70;;
74471;SDS011;62920;53.572;10.050;2023-03-01T16:20:48;10.30;;;3.90;;
74471;SDS011;62920;53.572;10.050;2023-03-01T16:23:14;9.43;;;4.25;;
74471;SDS011;62920;53.572;10.050;2023-03-01T16:25:39;10.20;;;4.60;;
74471;SDS011;62920;53.572;10.050;2023-03-01T16:28:05;11.10;;;4.60;;
74471;SDS011;62920;53.572;10.050;2023-03-01T16:30:33;8.88;;;4.40;;
74471;SDS011;62920;53.572;10.050;2023-03-01T16:33:00;9.82;;;4.90;;
74471;SDS011;62920;53.572;10.050;2023-03-01T16:35:26;8.90;;;4.72;;
74471;SDS011;62920;53.572;10.050;2023-03-01T16:37:52;11.75;;;4.65;;
74471;SDS011;62920;53.572;10.050;2023-03-01T16:40:20;9.55;;;4.13;;